createdAt,value
2022-12-09T00:01:56.175Z,35.25
2022-12-09T00:04:24.355Z,30.33
2022-12-09T00:06:52.751Z,31.90
2022-12-09T00:09:20.737Z,30.35
2022-12-09T00:11:48.743Z,33.10
2022-12-09T00:14:16.745Z,31.08
2022-12-09T00:16:46.136Z,31.63
2022-12-09T00:19:14.476Z,29.80
2022-12-09T00:21:43.366Z,29.42
2022-12-09T00:24:13.784Z,30.08
2022-12-09T00:26:42.471Z,36.28
2022-12-09T00:29:11.317Z,31.55
2022-12-09T00:31:40.164Z,35.22
2022-12-09T00:34:12.686Z,33.75
2022-12-09T00:39:08.771Z,34.08
2022-12-09T00:41:36.723Z,33.45
2022-12-09T00:44:05.571Z,35.38
2022-12-09T00:46:34.012Z,33.90
2022-12-09T00:49:02.323Z,32.63
2022-12-09T00:51:32.057Z,31.80
2022-12-09T00:54:00.126Z,31.52
2022-12-09T00:56:30.555Z,37.65
2022-12-09T00:58:59.330Z,34.45
2022-12-09T01:01:27.753Z,32.33
2022-12-09T01:03:56.295Z,34.08
2022-12-09T01:06:26.168Z,30.45
2022-12-09T01:08:55.905Z,33.20
2022-12-09T01:11:25.966Z,29.65
2022-12-09T01:13:54.645Z,32.28
2022-12-09T01:16:24.749Z,32.42
2022-12-09T01:18:53.714Z,36.85
2022-12-09T01:21:21.653Z,31.33
2022-12-09T01:23:49.607Z,36.38
2022-12-09T01:26:19.259Z,29.20
2022-12-09T01:28:51.267Z,33.85
2022-12-09T01:31:21.830Z,33.30
2022-12-09T01:33:50.564Z,28.70
2022-12-09T01:36:20.951Z,33.30
2022-12-09T01:38:49.431Z,33.08
2022-12-09T01:41:21.239Z,36.05
2022-12-09T01:44:11.243Z,30.00
2022-12-09T01:46:39.966Z,37.08
2022-12-09T01:49:09.387Z,31.20
2022-12-09T01:51:39.019Z,36.33
2022-12-09T01:54:07.467Z,30.25
2022-12-09T01:56:38.174Z,31.08
2022-12-09T01:59:09.009Z,30.92
2022-12-09T02:01:37.571Z,32.30
2022-12-09T02:04:06.990Z,29.08
2022-12-09T02:06:37.326Z,31.25
2022-12-09T02:09:05.949Z,36.03
2022-12-09T02:11:50.388Z,30.60
2022-12-09T02:14:25.215Z,32.08
2022-12-09T02:17:05.933Z,31.13
2022-12-09T02:19:50.228Z,29.00
2022-12-09T02:22:22.884Z,30.13
2022-12-09T02:24:59.050Z,28.52
2022-12-09T02:27:34.602Z,32.25
2022-12-09T02:30:09.805Z,33.00
2022-12-09T02:32:49.182Z,38.17
2022-12-09T02:35:23.882Z,30.38
2022-12-09T02:37:55.422Z,33.10
2022-12-09T02:40:30.249Z,32.20
2022-12-09T02:43:01.851Z,33.53
2022-12-09T02:45:32.271Z,39.70
2022-12-09T02:48:02.819Z,55.75
2022-12-09T02:50:36.142Z,45.35
2022-12-09T02:53:09.842Z,48.78
2022-12-09T02:55:40.332Z,39.42
2022-12-09T02:58:08.714Z,48.85
2022-12-09T03:00:38.259Z,39.00
2022-12-09T03:03:09.514Z,52.55
2022-12-09T03:05:47.890Z,44.25
2022-12-09T03:08:23.801Z,44.88
2022-12-09T03:10:57.388Z,40.75
2022-12-09T03:13:43.852Z,32.50
2022-12-09T03:16:23.551Z,32.58
2022-12-09T03:18:56.765Z,32.92
2022-12-09T03:21:29.339Z,32.88
2022-12-09T03:23:59.524Z,48.45
2022-12-09T03:26:33.393Z,30.95
2022-12-09T03:29:04.772Z,33.58
2022-12-09T03:31:35.677Z,28.85
2022-12-09T03:34:05.710Z,35.30
2022-12-09T03:36:39.805Z,33.08
2022-12-09T03:39:11.199Z,32.08
2022-12-09T03:41:42.141Z,30.85
2022-12-09T03:44:13.924Z,27.02
2022-12-09T03:46:42.221Z,29.58
2022-12-09T03:49:10.991Z,28.02
2022-12-09T03:51:46.169Z,26.55
2022-12-09T03:54:20.276Z,30.38
2022-12-09T03:56:53.334Z,25.90
2022-12-09T03:59:23.453Z,29.60
2022-12-09T04:01:52.851Z,23.88
2022-12-09T04:04:21.094Z,33.45
2022-12-09T04:06:53.085Z,26.02
2022-12-09T04:09:21.623Z,26.30
2022-12-09T04:11:49.910Z,22.90
2022-12-09T04:14:18.324Z,25.20
2022-12-09T04:16:46.444Z,24.67
2022-12-09T04:19:15.598Z,23.58
2022-12-09T04:21:44.056Z,24.73
2022-12-09T04:24:14.229Z,21.30
2022-12-09T04:26:42.492Z,22.70
2022-12-09T04:29:11.374Z,23.23
2022-12-09T04:31:39.943Z,27.40
2022-12-09T04:34:09.865Z,23.75
2022-12-09T04:36:38.730Z,26.50
2022-12-09T04:39:07.560Z,25.92
2022-12-09T04:41:37.545Z,27.15
2022-12-09T04:44:05.866Z,29.02
2022-12-09T04:46:34.384Z,28.65
2022-12-09T04:49:02.333Z,24.85
2022-12-09T04:51:35.824Z,29.45
2022-12-09T04:54:07.643Z,27.15
2022-12-09T04:56:36.926Z,28.17
2022-12-09T04:59:06.274Z,27.35
2022-12-09T05:01:35.433Z,26.10
2022-12-09T05:04:04.420Z,26.98
2022-12-09T05:06:32.822Z,30.15
2022-12-09T05:09:01.398Z,27.38
2022-12-09T05:11:29.745Z,25.58
2022-12-09T05:13:59.682Z,27.40
2022-12-09T05:16:28.121Z,23.58
2022-12-09T05:18:57.058Z,23.45
2022-12-09T05:21:25.322Z,25.67
2022-12-09T05:23:53.572Z,23.73
2022-12-09T05:26:23.734Z,23.90
2022-12-09T05:28:52.552Z,25.10
2022-12-09T05:31:23.750Z,25.73
2022-12-09T05:33:53.226Z,26.95
2022-12-09T05:36:24.309Z,22.75
2022-12-09T05:38:53.208Z,23.77
2022-12-09T05:41:21.647Z,25.83
2022-12-09T05:43:50.063Z,25.33
2022-12-09T05:46:18.259Z,25.05
2022-12-09T05:48:47.751Z,24.08
2022-12-09T05:51:22.450Z,21.17
2022-12-09T05:53:50.628Z,20.95
2022-12-09T05:56:20.758Z,23.90
2022-12-09T05:58:49.905Z,22.70
2022-12-09T06:01:18.794Z,20.70
2022-12-09T06:03:50.334Z,18.27
2022-12-09T06:06:20.946Z,18.07
2022-12-09T06:08:50.177Z,22.73
2022-12-09T06:11:20.352Z,25.33
2022-12-09T06:13:50.007Z,28.35
2022-12-09T06:16:20.562Z,25.88
2022-12-09T06:18:50.474Z,24.33
2022-12-09T06:21:20.705Z,26.40
2022-12-09T06:23:50.571Z,23.02
2022-12-09T06:26:20.834Z,22.27
2022-12-09T06:28:48.966Z,19.80
2022-12-09T06:31:17.344Z,20.83
2022-12-09T06:33:54.868Z,21.45
2022-12-09T06:36:26.918Z,19.33
2022-12-09T06:38:56.645Z,14.40
2022-12-09T06:41:26.124Z,19.10
2022-12-09T06:43:54.572Z,20.80
2022-12-09T06:46:24.822Z,20.25
2022-12-09T06:48:53.999Z,22.50
2022-12-09T06:51:23.834Z,20.05
2022-12-09T06:53:53.402Z,21.75
2022-12-09T06:56:21.658Z,20.70
2022-12-09T06:58:49.868Z,21.00
2022-12-09T07:01:19.943Z,21.90
2022-12-09T07:03:50.502Z,22.25
2022-12-09T07:06:26.266Z,27.90
2022-12-09T07:08:57.379Z,23.80
2022-12-09T07:11:26.490Z,23.13
2022-12-09T07:13:54.865Z,24.23
2022-12-09T07:16:23.041Z,23.45
2022-12-09T07:18:51.906Z,21.27
2022-12-09T07:21:22.090Z,23.20
2022-12-09T07:23:50.563Z,24.33
2022-12-09T07:26:20.853Z,21.27
2022-12-09T07:28:50.470Z,22.02
2022-12-09T07:31:21.286Z,24.42
2022-12-09T07:33:50.142Z,25.02
2022-12-09T07:36:21.320Z,22.98
2022-12-09T07:38:50.333Z,26.00
2022-12-09T07:41:20.273Z,19.35
2022-12-09T07:43:49.165Z,20.98
2022-12-09T07:46:20.037Z,22.38
2022-12-09T07:48:49.337Z,22.95
2022-12-09T07:51:18.513Z,21.63
2022-12-09T07:53:47.056Z,22.40
2022-12-09T07:56:16.934Z,24.88
2022-12-09T07:58:48.226Z,21.80
2022-12-09T08:01:18.843Z,24.03
2022-12-09T08:03:48.551Z,21.63
2022-12-09T08:06:19.203Z,23.73
2022-12-09T08:08:48.382Z,21.00
2022-12-09T08:11:19.626Z,20.52
2022-12-09T08:13:49.819Z,19.50
2022-12-09T08:16:20.590Z,18.67
2022-12-09T08:18:49.750Z,20.35
2022-12-09T08:21:21.212Z,19.88
2022-12-09T08:23:50.083Z,22.63
2022-12-09T08:26:22.328Z,19.38
2022-12-09T08:28:52.548Z,20.98
2022-12-09T08:31:23.295Z,21.38
2022-12-09T08:33:52.342Z,18.38
2022-12-09T08:36:23.107Z,18.25
2022-12-09T08:38:51.673Z,21.80
2022-12-09T08:41:22.976Z,22.08
2022-12-09T08:43:52.504Z,19.52
2022-12-09T08:48:56.489Z,19.58
2022-12-09T08:51:24.906Z,21.13
2022-12-09T08:53:53.516Z,21.98
2022-12-09T08:56:21.814Z,17.83
2022-12-09T08:58:50.159Z,21.83
2022-12-09T09:01:22.575Z,20.48
2022-12-09T09:06:20.573Z,19.98
2022-12-09T09:08:49.077Z,18.95
2022-12-09T09:11:19.779Z,24.65
2022-12-09T09:13:51.661Z,20.38
2022-12-09T09:16:23.734Z,20.55
2022-12-09T09:18:52.771Z,24.45
2022-12-09T09:21:24.265Z,21.10
2022-12-09T09:23:52.644Z,20.20
2022-12-09T09:26:23.764Z,20.02
2022-12-09T09:28:52.519Z,23.55
2022-12-09T09:31:23.969Z,25.70
2022-12-09T09:33:52.831Z,26.10
2022-12-09T09:36:23.773Z,23.13
2022-12-09T09:38:53.970Z,19.95
2022-12-09T09:41:29.326Z,19.35
2022-12-09T09:43:58.242Z,22.63
2022-12-09T09:46:35.875Z,21.90
2022-12-09T09:49:07.834Z,30.38
2022-12-09T09:51:36.632Z,23.70
2022-12-09T09:54:08.776Z,20.52
2022-12-09T09:56:43.778Z,20.60
2022-12-09T09:59:29.766Z,22.50
2022-12-09T10:02:09.669Z,19.40
2022-12-09T10:04:50.197Z,19.65
2022-12-09T10:07:24.271Z,18.55
2022-12-09T10:10:02.500Z,19.35
2022-12-09T10:12:41.266Z,19.25
2022-12-09T10:15:13.423Z,18.38
2022-12-09T10:17:50.157Z,20.50
2022-12-09T10:20:21.513Z,18.83
2022-12-09T10:22:53.229Z,19.58
2022-12-09T10:25:24.904Z,21.50
2022-12-09T10:27:58.225Z,19.13
2022-12-09T10:30:30.451Z,17.25
2022-12-09T10:33:05.069Z,20.98
2022-12-09T10:35:34.716Z,19.35
2022-12-09T10:38:09.120Z,18.60
2022-12-09T10:40:44.463Z,18.88
2022-12-09T10:43:35.244Z,21.20
2022-12-09T10:46:22.890Z,17.10
2022-12-09T10:49:01.642Z,17.90
2022-12-09T10:51:32.924Z,20.10
2022-12-09T10:54:21.790Z,17.17
2022-12-09T10:57:03.808Z,17.90
2022-12-09T10:59:32.888Z,16.92
2022-12-09T11:02:04.816Z,17.77
2022-12-09T11:07:15.731Z,20.35
2022-12-09T11:09:45.998Z,17.38
2022-12-09T11:12:20.296Z,17.50
2022-12-09T11:14:53.662Z,17.50
2022-12-09T11:17:25.172Z,15.55
2022-12-09T11:19:57.171Z,17.33
2022-12-09T11:22:39.358Z,13.68
2022-12-09T11:25:24.934Z,19.95
2022-12-09T11:27:56.578Z,15.13
2022-12-09T11:30:27.667Z,11.63
2022-12-09T11:33:03.681Z,13.55
2022-12-09T11:35:41.919Z,15.80
2022-12-09T11:38:22.439Z,14.43
2022-12-09T11:41:02.326Z,14.15
2022-12-09T11:43:37.543Z,16.02
2022-12-09T11:46:18.805Z,15.88
2022-12-09T11:48:54.541Z,15.20
2022-12-09T11:51:27.457Z,17.75
2022-12-09T11:54:03.697Z,15.77
2022-12-09T11:56:33.568Z,17.85
2022-12-09T11:59:04.310Z,13.82
2022-12-09T12:01:46.222Z,13.40
2022-12-09T12:04:17.587Z,12.48
2022-12-09T12:06:49.700Z,14.80
2022-12-09T12:09:23.687Z,15.90
2022-12-09T12:12:01.898Z,14.95
2022-12-09T12:14:31.513Z,24.20
2022-12-09T12:17:08.362Z,17.92
2022-12-09T12:19:39.311Z,20.92
2022-12-09T12:22:40.293Z,19.90
2022-12-09T12:25:23.484Z,26.60
2022-12-09T12:28:14.314Z,23.95
2022-12-09T12:30:48.825Z,19.05
2022-12-09T12:36:29.829Z,22.25
2022-12-09T12:39:11.322Z,17.35
2022-12-09T12:41:47.891Z,17.38
2022-12-09T12:44:57.041Z,25.00
2022-12-09T12:47:42.511Z,18.95
2022-12-09T12:50:27.239Z,24.73
2022-12-09T12:53:04.135Z,24.15
2022-12-09T12:55:48.840Z,22.10
2022-12-09T12:58:27.325Z,20.25
2022-12-09T13:01:04.263Z,23.23
2022-12-09T13:03:38.713Z,22.90
2022-12-09T13:06:10.771Z,21.08
2022-12-09T13:08:42.241Z,26.13
2022-12-09T13:11:17.115Z,21.00
2022-12-09T13:13:49.307Z,22.60
2022-12-09T13:16:20.257Z,20.92
2022-12-09T13:18:50.215Z,22.52
2022-12-09T13:21:19.292Z,26.17
2022-12-09T13:23:57.982Z,22.33
2022-12-09T13:26:38.484Z,21.02
2022-12-09T13:29:13.847Z,23.30
2022-12-09T13:31:59.885Z,24.00
2022-12-09T13:34:38.154Z,22.55
2022-12-09T13:37:26.899Z,26.33
2022-12-09T13:39:58.286Z,28.67
2022-12-09T13:42:56.466Z,27.67
2022-12-09T13:45:33.097Z,34.35
2022-12-09T13:48:05.394Z,28.92
2022-12-09T13:50:39.146Z,34.45
2022-12-09T13:53:21.887Z,35.65
2022-12-09T13:55:52.405Z,34.78
2022-12-09T13:58:57.102Z,31.48
2022-12-09T14:01:32.326Z,36.65
2022-12-09T14:04:13.254Z,46.03
2022-12-09T14:06:53.632Z,42.80
2022-12-09T14:09:33.393Z,46.75
2022-12-09T14:12:03.259Z,42.28
2022-12-09T14:14:59.548Z,61.47
2022-12-09T14:18:03.862Z,55.58
2022-12-09T14:20:37.936Z,51.38
2022-12-09T14:23:18.559Z,57.65
2022-12-09T14:25:58.227Z,49.15
2022-12-09T14:28:54.478Z,53.70
2022-12-09T14:31:53.548Z,55.47
2022-12-09T14:34:44.636Z,58.92
2022-12-09T14:37:31.105Z,59.67
2022-12-09T14:40:16.890Z,49.85
2022-12-09T14:42:55.407Z,51.58
2022-12-09T14:45:30.402Z,53.08
2022-12-09T14:47:58.701Z,57.20
2022-12-09T14:50:29.452Z,47.55
2022-12-09T14:53:00.485Z,46.88
2022-12-09T14:55:30.657Z,49.42
2022-12-09T14:58:00.960Z,45.83
2022-12-09T15:00:34.608Z,45.17
2022-12-09T15:06:02.262Z,43.42
2022-12-09T15:08:33.422Z,47.00
2022-12-09T15:11:02.859Z,42.35
2022-12-09T15:13:34.443Z,43.63
2022-12-09T15:16:03.219Z,43.27
2022-12-09T15:18:32.332Z,42.53
2022-12-09T15:21:02.769Z,35.40
2022-12-09T15:23:34.586Z,37.45
2022-12-09T15:26:05.920Z,41.47
2022-12-09T15:28:36.567Z,43.90
2022-12-09T15:31:06.980Z,41.08
2022-12-09T15:33:41.091Z,43.67
2022-12-09T15:36:14.356Z,40.83
2022-12-09T15:38:46.539Z,40.20
2022-12-09T15:41:34.248Z,37.40
2022-12-09T15:44:07.803Z,40.40
2022-12-09T15:46:38.003Z,36.55
2022-12-09T15:49:07.859Z,37.55
2022-12-09T15:51:39.493Z,34.33
2022-12-09T15:54:10.363Z,38.17
2022-12-09T15:56:40.598Z,36.72
2022-12-09T15:59:16.788Z,35.50
2022-12-09T16:01:49.379Z,35.65
2022-12-09T16:04:22.677Z,38.55
2022-12-09T16:06:52.265Z,39.25
2022-12-09T16:09:21.753Z,34.38
2022-12-09T16:11:51.796Z,38.80
2022-12-09T16:14:21.510Z,34.20
2022-12-09T16:16:51.511Z,35.17
2022-12-09T16:19:34.432Z,38.38
2022-12-09T16:22:07.305Z,45.95
2022-12-09T16:25:12.636Z,43.85
2022-12-09T16:27:27.720Z,42.42
2022-12-09T16:29:57.694Z,39.72
2022-12-09T16:32:28.210Z,37.60
2022-12-09T16:34:58.973Z,36.85
2022-12-09T16:37:38.614Z,37.28
2022-12-09T16:40:55.496Z,30.70
2022-12-09T16:43:25.025Z,37.08
2022-12-09T16:45:54.043Z,36.15
2022-12-09T16:48:24.546Z,35.90
2022-12-09T16:50:54.870Z,35.42
2022-12-09T16:53:26.838Z,39.90
2022-12-09T16:55:59.599Z,39.80
2022-12-09T16:58:28.264Z,34.83
2022-12-09T17:01:17.466Z,39.10
2022-12-09T17:03:56.202Z,38.85
2022-12-09T17:06:24.689Z,40.20
2022-12-09T17:08:53.966Z,40.05
2022-12-09T17:11:22.524Z,37.28
2022-12-09T17:13:50.774Z,41.35
2022-12-09T17:16:21.838Z,36.58
2022-12-09T17:18:50.368Z,40.45
2022-12-09T17:21:18.717Z,33.97
2022-12-09T17:23:46.730Z,34.92
2022-12-09T17:26:19.065Z,44.47
2022-12-09T17:28:48.117Z,37.30
2022-12-09T17:31:18.541Z,37.72
2022-12-09T17:33:46.901Z,37.45
2022-12-09T17:36:16.000Z,34.38
2022-12-09T17:38:43.949Z,35.70
2022-12-09T17:41:15.696Z,38.45
2022-12-09T17:43:45.139Z,37.28
2022-12-09T17:46:14.307Z,39.53
2022-12-09T17:48:42.752Z,39.65
2022-12-09T17:51:13.125Z,46.55
2022-12-09T17:53:42.589Z,42.75
2022-12-09T17:56:12.000Z,39.60
2022-12-09T17:58:40.416Z,44.85
2022-12-09T18:01:15.854Z,40.97
2022-12-09T18:04:04.324Z,45.78
2022-12-09T18:06:34.541Z,47.92
2022-12-09T18:09:03.380Z,41.38
2022-12-09T18:11:31.457Z,36.05
2022-12-09T18:13:59.845Z,36.63
2022-12-09T18:16:29.304Z,34.72
2022-12-09T18:18:57.288Z,35.28
2022-12-09T18:21:25.181Z,32.67
2022-12-09T18:23:53.244Z,38.25
2022-12-09T18:26:23.511Z,33.97
2022-12-09T18:28:56.477Z,35.50
2022-12-09T18:31:26.249Z,32.78
2022-12-09T18:33:55.656Z,38.42
2022-12-09T18:36:25.544Z,32.97
2022-12-09T18:38:54.801Z,39.00
2022-12-09T18:41:25.043Z,37.97
2022-12-09T18:43:54.581Z,35.22
2022-12-09T18:46:25.976Z,34.95
2022-12-09T18:48:58.848Z,40.55
2022-12-09T18:51:27.628Z,37.15
2022-12-09T18:53:57.553Z,35.00
2022-12-09T18:56:26.050Z,35.55
2022-12-09T18:59:09.734Z,36.10
2022-12-09T19:01:40.691Z,37.05
2022-12-09T19:04:14.857Z,34.97
2022-12-09T19:06:44.741Z,34.55
2022-12-09T19:09:15.644Z,36.15
2022-12-09T19:11:46.225Z,34.58
2022-12-09T19:14:15.543Z,32.45
2022-12-09T19:16:44.079Z,32.13
2022-12-09T19:19:14.940Z,37.85
2022-12-09T19:21:43.688Z,35.75
2022-12-09T19:24:15.110Z,43.60
2022-12-09T19:26:43.826Z,36.97
2022-12-09T19:29:12.919Z,34.80
2022-12-09T19:31:42.300Z,36.60
2022-12-09T19:34:15.805Z,33.22
2022-12-09T19:36:44.578Z,28.90
2022-12-09T19:39:13.878Z,31.23
2022-12-09T19:41:42.919Z,34.17
2022-12-09T19:44:15.335Z,32.33
2022-12-09T19:46:46.194Z,33.97
2022-12-09T19:49:17.090Z,29.45
2022-12-09T19:51:45.093Z,34.72
2022-12-09T19:54:12.967Z,31.27
2022-12-09T19:56:41.600Z,32.92
2022-12-09T19:59:09.610Z,31.40
2022-12-09T20:01:39.495Z,33.03
2022-12-09T20:04:46.444Z,35.33
2022-12-09T20:07:02.441Z,33.03
2022-12-09T20:09:34.952Z,31.48
2022-12-09T20:12:03.151Z,29.65
2022-12-09T20:14:31.023Z,31.52
2022-12-09T20:16:58.942Z,30.67
2022-12-09T20:19:26.953Z,29.25
2022-12-09T20:21:54.888Z,27.80
2022-12-09T20:24:24.700Z,32.50
2022-12-09T20:26:52.696Z,34.22
2022-12-09T20:29:20.631Z,34.42
2022-12-09T20:31:48.621Z,31.92
2022-12-09T20:34:17.997Z,34.88
2022-12-09T20:36:46.973Z,34.78
2022-12-09T20:39:18.852Z,30.13
2022-12-09T20:41:49.050Z,33.67
2022-12-09T20:44:18.363Z,32.08
2022-12-09T20:46:48.131Z,32.80
2022-12-09T20:49:16.368Z,28.60
2022-12-09T20:51:45.479Z,32.72
2022-12-09T20:54:13.862Z,32.67
2022-12-09T20:56:42.471Z,31.70
2022-12-09T20:59:13.600Z,33.88
2022-12-09T21:01:43.374Z,28.55
2022-12-09T21:04:11.352Z,31.15
2022-12-09T21:06:41.100Z,33.15
2022-12-09T21:09:11.119Z,31.75
2022-12-09T21:11:39.911Z,29.45
2022-12-09T21:14:08.767Z,30.85
2022-12-09T21:16:40.501Z,28.70
2022-12-09T21:19:12.483Z,30.63
2022-12-09T21:21:42.466Z,31.00
2022-12-09T21:24:11.488Z,32.17
2022-12-09T21:26:41.331Z,29.88
2022-12-09T21:29:11.080Z,33.83
2022-12-09T21:31:41.880Z,27.13
2022-12-09T21:34:11.521Z,31.83
2022-12-09T21:36:43.439Z,31.33
2022-12-09T21:39:13.463Z,33.97
2022-12-09T21:41:41.682Z,30.63
2022-12-09T21:44:14.093Z,31.95
2022-12-09T21:46:43.635Z,30.00
2022-12-09T21:49:12.636Z,30.15
2022-12-09T21:51:42.297Z,28.13
2022-12-09T21:54:10.874Z,28.65
2022-12-09T21:56:39.009Z,37.90
2022-12-09T21:59:08.624Z,31.15
2022-12-09T22:01:38.613Z,35.55
2022-12-09T22:04:10.185Z,32.08
2022-12-09T22:06:38.600Z,29.35
2022-12-09T22:09:08.046Z,30.98
2022-12-09T22:11:38.272Z,28.60
2022-12-09T22:14:08.144Z,29.67
2022-12-09T22:16:38.085Z,55.83
2022-12-09T22:19:09.357Z,35.35
2022-12-09T22:21:38.240Z,40.25
2022-12-09T22:24:09.184Z,58.90
2022-12-09T22:26:37.569Z,56.83
2022-12-09T22:29:07.005Z,38.38
2022-12-09T22:31:36.684Z,37.72
2022-12-09T22:34:08.480Z,33.58
2022-12-09T22:36:36.991Z,31.80
2022-12-09T22:39:06.627Z,29.35
2022-12-09T22:41:35.227Z,36.13
2022-12-09T22:44:04.029Z,35.50
2022-12-09T22:46:34.268Z,34.47
2022-12-09T22:49:05.025Z,33.58
2022-12-09T22:51:36.235Z,35.53
2022-12-09T22:54:06.475Z,35.60
2022-12-09T22:56:34.773Z,35.70
2022-12-09T22:59:02.729Z,34.55
2022-12-09T23:01:35.591Z,39.15
2022-12-09T23:04:04.110Z,35.15
2022-12-09T23:06:32.272Z,35.53
2022-12-09T23:09:01.770Z,37.38
2022-12-09T23:11:30.010Z,36.03
2022-12-09T23:14:00.260Z,37.10
2022-12-09T23:16:28.911Z,37.65
2022-12-09T23:18:58.927Z,36.75
2022-12-09T23:21:29.657Z,35.97
2022-12-09T23:23:59.333Z,30.33
2022-12-09T23:26:32.442Z,33.83
2022-12-09T23:29:02.546Z,37.22
2022-12-09T23:31:35.620Z,34.83
2022-12-09T23:34:04.859Z,37.85
2022-12-09T23:36:34.903Z,34.05
2022-12-09T23:39:04.827Z,35.55
2022-12-09T23:41:34.230Z,40.88
2022-12-09T23:44:02.255Z,35.60
2022-12-09T23:46:31.144Z,40.95
2022-12-09T23:48:59.063Z,37.20
2022-12-09T23:51:28.898Z,39.53
2022-12-09T23:53:59.354Z,39.80
2022-12-09T23:56:30.308Z,39.25
2022-12-09T23:59:01.025Z,36.70
